Time;durP1;ratioP1;P1;durP2;ratioP2;P2;SDS_P1;SDS_P2;PMS_P1;PMS_P2;Temp;Humidity;BMP_temperature;BMP_pressure;BME280_temperature;BME280_humidity;BME280_pressure;Samples;Min_cycle;Max_cycle;Signal;HPM_P1;HPM_P2
2023/08/07 00:05:37;;;;;;;;;;;;;;;14.91;78.62;99866.25;15685375;28;20040;-57
2023/08/07 00:13:10;;;;;;;15.20;5.38;;;;;;;14.57;80.28;99863.03;15627420;28;19995;-52
2023/08/07 00:20:45;;;;;;;8.05;5.03;;;;;;;14.79;79.51;99861.88;15620738;28;20046;-50
2023/08/07 00:28:18;;;;;;;10.45;5.32;;;;;;;14.90;79.47;99849.22;15620338;28;20049;-53
2023/08/07 00:35:53;;;;;;;13.38;5.68;;;;;;;15.20;79.10;99853.19;15620015;28;20102;-53
2023/08/07 00:43:26;;;;;;;15.10;6.35;;;;;;;14.73;80.72;99852.09;15618493;28;20088;-54
2023/08/07 00:51:00;;;;;;;9.40;6.80;;;;;;;14.44;83.34;99842.66;15618083;28;20133;-49
2023/08/07 00:58:35;;;;;;;11.48;6.93;;;;;;;14.80;81.70;99839.19;15617647;28;20053;-52
2023/08/07 01:06:10;;;;;;;10.90;6.97;;;;;;;14.33;82.93;99836.34;15619090;28;20446;-53
2023/08/07 01:13:52;;;;;;;11.60;7.03;;;;;;;14.74;81.33;99842.13;15628492;28;20230;-50
2023/08/07 01:21:28;;;;;;;12.87;7.27;;;;;;;14.60;81.58;99841.75;15662396;28;20059;-49
2023/08/07 01:29:13;;;;;;;13.05;7.28;;;;;;;14.76;80.45;99829.16;15678785;28;20132;-48
2023/08/07 01:36:48;;;;;;;14.90;6.40;;;;;;;14.13;83.14;99825.38;15661529;28;20044;-53
2023/08/07 01:44:23;;;;;;;12.90;7.32;;;;;;;14.47;82.76;99825.94;15661090;28;20116;-50
2023/08/07 01:51:56;;;;;;;11.48;6.95;;;;;;;14.45;83.13;99812.69;15660744;28;20656;-48
2023/08/07 01:59:31;;;;;;;12.35;7.30;;;;;;;14.47;82.49;99821.34;15660868;28;20044;-50
2023/08/07 02:07:04;;;;;;;16.50;8.05;;;;;;;14.59;82.84;99823.88;15643112;28;20128;-48
2023/08/07 02:14:39;;;;;;;14.63;8.27;;;;;;;14.33;83.64;99813.94;15623344;28;20115;-52
2023/08/07 02:22:14;;;;;;;11.10;7.72;;;;;;;14.72;82.71;99825.34;15613093;28;20042;-49
2023/08/07 02:29:50;;;;;;;11.85;7.70;;;;;;;14.46;82.83;99838.63;15614081;28;20120;-50
2023/08/07 02:37:23;;;;;;;12.18;7.82;;;;;;;14.40;83.92;99838.84;15617929;28;20045;-50
2023/08/07 02:44:58;;;;;;;14.52;8.52;;;;;;;14.44;83.51;99848.06;15659700;28;20124;-52
2023/08/07 02:52:31;;;;;;;13.95;8.45;;;;;;;14.64;82.57;99844.72;15658152;28;20052;-49
2023/08/07 03:00:08;;;;;;;16.40;9.10;;;;;;;14.40;83.81;99849.63;15655690;28;20464;-52
2023/08/07 03:07:42;;;;;;;14.60;9.18;;;;;;;14.41;83.98;99845.84;15639715;28;20483;-51
2023/08/07 03:15:18;;;;;;;14.55;9.63;;;;;;;14.52;84.01;99853.81;15671963;28;20065;-48
2023/08/07 03:22:50;;;;;;;19.02;10.55;;;;;;;14.73;83.58;99857.47;15655056;28;20045;-52
2023/08/07 03:30:25;;;;;;;;;;;;;;;14.39;84.36;99865.03;15654983;28;20068;-50
2023/08/07 03:37:58;;;;;;;19.38;11.30;;;;;;;14.57;84.21;99868.44;15637590;28;20016;-53
2023/08/07 03:45:33;;;;;;;20.05;11.23;;;;;;;14.62;83.78;99876.59;15673215;28;20076;-49
2023/08/07 03:53:07;;;;;;;22.38;10.70;;;;;;;14.60;83.58;99874.16;15654021;28;20052;-47
2023/08/07 04:00:45;;;;;;;17.75;10.35;;;;;;;14.47;83.78;99878.06;15653918;28;20052;-50
2023/08/07 04:08:19;;;;;;;17.58;9.80;;;;;;;14.68;82.69;99870.94;15654109;28;20045;-47
2023/08/07 04:15:54;;;;;;;;;;;;;;;14.39;84.12;99877.72;15608616;28;20574;-48
2023/08/07 04:23:28;;;;;;;14.40;8.23;;;;;;;14.42;83.38;99882.59;15607743;28;19948;-47
2023/08/07 04:31:02;;;;;;;18.67;8.07;;;;;;;14.50;82.19;99877.59;15608308;28;20390;-48
2023/08/07 04:38:36;;;;;;;11.85;7.60;;;;;;;14.68;82.28;99884.47;15608133;28;20049;-48
2023/08/07 04:46:11;;;;;;;11.13;7.18;;;;;;;14.28;83.62;99891.13;15612423;28;20486;-51
2023/08/07 04:53:46;;;;;;;9.90;7.63;;;;;;;14.43;83.77;99898.53;15619820;28;20107;-53
2023/08/07 05:01:20;;;;;;;14.68;7.47;;;;;;;14.40;82.89;99895.53;15601702;28;20049;-51
2023/08/07 05:08:54;;;;;;;15.27;7.05;;;;;;;14.49;82.31;99897.53;15619044;28;20469;-49
2023/08/07 05:16:29;;;;;;;10.05;6.55;;;;;;;14.42;82.20;99906.91;15669385;28;20136;-50
2023/08/07 05:24:02;;;;;;;9.20;5.90;;;;;;;14.51;81.64;99911.63;15679713;28;20494;-51
2023/08/07 05:31:37;;;;;;;9.13;6.38;;;;;;;14.37;82.34;99925.75;15679302;28;20076;-49
2023/08/07 05:39:10;;;;;;;9.27;6.07;;;;;;;14.43;82.45;99913.94;15660984;28;20136;-50
2023/08/07 05:46:44;;;;;;;13.65;6.40;;;;;;;14.67;81.25;99915.25;15643965;28;20419;-50
2023/08/07 05:54:17;;;;;;;9.18;5.30;;;;;;;14.77;81.01;99920.72;15677885;28;20052;-48
2023/08/07 06:01:52;;;;;;;8.77;5.53;;;;;;;15.09;80.47;99930.72;15658372;28;20041;-52
2023/08/07 06:09:26;;;;;;;9.15;4.97;;;;;;;15.17;79.24;99915.91;15659522;28;20059;-48
2023/08/07 06:17:02;;;;;;;11.15;4.50;;;;;;;15.79;78.03;99925.97;15622717;28;20574;-50
2023/08/07 06:24:36;;;;;;;7.57;3.90;;;;;;;15.76;76.98;99949.00;15614848;28;20490;-49
2023/08/07 06:32:11;;;;;;;;;;;;;;;15.53;76.98;99968.31;15613965;28;20099;-53
2023/08/07 06:39:46;;;;;;;7.18;3.58;;;;;;;15.71;76.65;99970.59;15595842;28;19921;-50
2023/08/07 06:47:20;;;;;;;6.90;3.90;;;;;;;15.77;76.55;99982.28;15611868;28;20120;-49
2023/08/07 06:54:54;;;;;;;7.57;3.60;;;;;;;15.98;74.67;99975.84;15613698;28;20045;-51
2023/08/07 07:02:28;;;;;;;6.18;3.05;;;;;;;16.33;74.00;99980.59;15612673;28;20140;-53
2023/08/07 07:10:01;;;;;;;5.45;2.88;;;;;;;16.72;71.96;99982.03;15612555;28;20086;-50
2023/08/07 07:17:42;;;;;;;5.88;2.90;;;;;;;16.45;71.67;99993.06;15672238;28;20386;-47
2023/08/07 07:25:16;;;;;;;4.60;2.67;;;;;;;16.67;71.27;100000.97;15673257;28;20079;-52
2023/08/07 07:32:52;;;;;;;5.18;2.80;;;;;;;16.77;70.76;99999.13;15672585;28;20063;-55
2023/08/07 07:40:25;;;;;;;5.97;2.80;;;;;;;17.05;69.12;99991.53;15672397;28;20037;-50
2023/08/07 07:48:00;;;;;;;3.58;2.28;;;;;;;16.83;68.84;100005.34;15672491;28;20475;-53
2023/08/07 07:55:34;;;;;;;5.47;2.88;;;;;;;16.81;69.36;100015.66;15671849;28;20073;-53
2023/08/07 08:03:08;;;;;;;6.45;2.80;;;;;;;16.59;70.17;100021.28;15654455;28;20064;-49
2023/08/07 08:10:41;;;;;;;4.35;2.83;;;;;;;16.55;70.69;100018.31;15650288;28;20041;-50
2023/08/07 08:18:15;;;;;;;5.97;2.67;;;;;;;16.93;69.26;100020.84;15591426;28;20046;-47
2023/08/07 08:25:49;;;;;;;4.88;2.70;;;;;;;17.01;68.17;100012.16;15620465;28;20038;-47
2023/08/07 08:33:23;;;;;;;7.70;2.70;;;;;;;17.29;69.26;100019.72;15621083;28;20046;-48
2023/08/07 08:40:57;;;;;;;4.90;2.42;;;;;;;17.61;68.38;100024.03;15650053;28;20064;-53
2023/08/07 08:48:35;;;;;;;4.15;2.63;;;;;;;17.31;68.38;100041.19;15682393;28;20053;-48
2023/08/07 08:56:11;;;;;;;3.80;2.30;;;;;;;17.14;67.37;100038.72;15664197;28;20045;-51
2023/08/07 09:03:46;;;;;;;4.40;2.15;;;;;;;17.28;67.88;100030.88;15662429;28;20069;-55
2023/08/07 09:11:20;;;;;;;4.30;2.30;;;;;;;17.73;66.24;100015.63;15662003;28;20474;-56
2023/08/07 09:18:58;;;;;;;7.22;2.20;;;;;;;17.68;66.18;100037.34;15661850;28;20102;-55
2023/08/07 09:26:33;;;;;;;6.07;1.75;;;;;;;17.84;64.21;100049.81;15680020;28;20045;-49
2023/08/07 09:34:08;;;;;;;6.93;1.83;;;;;;;17.80;62.95;100060.41;15678191;28;20041;-53
2023/08/07 09:41:41;;;;;;;3.80;1.60;;;;;;;18.16;62.99;100063.03;15661895;28;20040;-51
2023/08/07 09:49:16;;;;;;;8.40;2.00;;;;;;;18.38;63.91;100062.69;15661034;28;20198;-56
2023/08/07 09:56:49;;;;;;;3.50;1.48;;;;;;;18.46;63.16;100064.78;15660847;28;20065;-51
2023/08/07 10:04:26;;;;;;;7.75;2.10;;;;;;;18.43;62.11;100064.56;15677887;28;20063;-52
2023/08/07 10:12:00;;;;;;;2.65;1.40;;;;;;;18.45;60.74;100067.81;15663759;28;20124;-50
2023/08/07 10:19:34;;;;;;;5.68;1.40;;;;;;;18.73;59.99;100055.47;15614208;28;20133;-54
2023/08/07 10:27:08;;;;;;;2.95;1.40;;;;;;;18.38;60.07;100068.13;15614873;28;20045;-53
2023/08/07 10:34:47;;;;;;;4.38;1.30;;;;;;;19.21;59.76;100066.53;15614023;28;20060;-52
2023/08/07 10:42:21;;;;;;;3.92;1.35;;;;;;;18.59;59.59;100071.53;15614089;28;20045;-51
2023/08/07 10:49:55;;;;;;;2.63;1.08;;;;;;;18.22;59.01;100064.63;15612409;28;20092;-54
2023/08/07 10:57:32;;;;;;;2.92;1.20;;;;;;;18.11;60.16;100068.47;15613036;28;20042;-51
2023/08/07 11:05:08;;;;;;;4.07;1.55;;;;;;;18.21;59.86;100073.06;15613145;28;20078;-51
2023/08/07 11:12:44;;;;;;;2.40;1.30;;;;;;;18.10;61.19;100064.97;15631253;28;20107;-53
2023/08/07 11:20:19;;;;;;;2.70;1.50;;;;;;;17.93;60.84;100055.50;15673294;28;20059;-54
2023/08/07 11:27:52;;;;;;;7.00;1.50;;;;;;;17.77;61.52;100069.13;15673749;28;20486;-49
2023/08/07 11:35:27;;;;;;;;;;;;;;;17.06;68.12;100088.06;15673862;28;20041;-53
2023/08/07 11:43:00;;;;;;;2.28;1.50;;;;;;;17.75;66.78;100076.69;15672648;28;19927;-55
2023/08/07 11:50:36;;;;;;;3.28;1.60;;;;;;;18.35;66.05;100074.91;15655008;28;20052;-52
2023/08/07 11:58:09;;;;;;;2.03;1.40;;;;;;;17.93;64.11;100066.38;15671359;28;20053;-55
2023/08/07 12:05:43;;;;;;;;;;;;;;;19.56;60.03;100060.81;15654151;28;20158;-53
2023/08/07 12:13:16;;;;;;;4.60;1.25;;;;;;;20.63;55.68;100043.28;15630459;28;20482;-51
2023/08/07 12:20:51;;;;;;;3.15;1.20;;;;;;;20.30;54.65;100046.97;15608784;28;20144;-56
2023/08/07 12:28:24;;;;;;;4.22;1.30;;;;;;;19.43;55.99;100057.94;15607846;28;20042;-54
2023/08/07 12:35:59;;;;;;;2.55;0.90;;;;;;;18.82;55.26;100070.09;15591496;28;20053;-51
2023/08/07 12:43:33;;;;;;;3.95;1.00;;;;;;;19.66;55.04;100079.00;15608978;28;20045;-51
2023/08/07 12:51:07;;;;;;;2.72;0.90;;;;;;;19.98;57.37;100074.88;15606684;28;20263;-49
2023/08/07 12:58:40;;;;;;;6.03;1.00;;;;;;;20.54;56.09;100083.22;15607850;28;20149;-50
2023/08/07 13:06:15;;;;;;;6.10;1.23;;;;;;;20.38;56.07;100084.50;15611618;28;20053;-51
2023/08/07 13:13:52;;;;;;;5.40;1.30;;;;;;;19.74;58.72;100096.63;15648351;28;20037;-52
2023/08/07 13:21:26;;;;;;;4.45;1.52;;;;;;;19.09;61.37;100124.06;15680451;28;20052;-52
2023/08/07 13:28:59;;;;;;;5.72;1.73;;;;;;;19.57;62.44;100119.59;15661734;28;20037;-53
2023/08/07 13:36:33;;;;;;;6.18;1.80;;;;;;;19.71;61.76;100118.97;15679586;28;20059;-57
2023/08/07 13:44:06;;;;;;;8.85;1.63;;;;;;;19.03;63.24;100147.75;15661690;28;20461;-52
2023/08/07 13:51:41;;;;;;;3.88;1.30;;;;;;;19.78;59.77;100139.34;15660872;28;20497;-52
2023/08/07 13:59:15;;;;;;;6.88;1.48;;;;;;;20.17;59.74;100143.88;15678173;28;20524;-54
2023/08/07 14:06:49;;;;;;;8.73;1.48;;;;;;;20.29;54.02;100146.22;15660875;28;20049;-51
2023/08/07 14:14:22;;;;;;;2.65;0.95;;;;;;;19.78;49.91;100155.69;15644667;28;20464;-54
2023/08/07 14:21:56;;;;;;;6.07;1.10;;;;;;;19.50;50.78;100176.28;15613022;28;20045;-48
2023/08/07 14:29:29;;;;;;;6.05;1.60;;;;;;;19.03;53.31;100209.50;15614088;28;20115;-53
2023/08/07 14:37:05;;;;;;;5.78;1.75;;;;;;;18.67;52.00;100233.25;15614178;28;20103;-49
2023/08/07 14:44:38;;;;;;;8.45;2.03;;;;;;;18.93;52.18;100228.56;15662557;28;20068;-49
2023/08/07 14:52:13;;;;;;;7.18;1.77;;;;;;;19.58;50.19;100232.03;15674909;28;20041;-54
2023/08/07 14:59:46;;;;;;;9.02;1.80;;;;;;;19.61;47.65;100239.69;15674931;28;20077;-52
2023/08/07 15:07:20;;;;;;;5.68;1.77;;;;;;;19.20;45.69;100239.88;15675230;28;20131;-55
2023/08/07 15:14:54;;;;;;;6.50;1.70;;;;;;;19.45;46.74;100258.00;15675546;28;20135;-50
2023/08/07 15:22:29;;;;;;;6.68;1.80;;;;;;;19.74;46.26;100258.09;15674274;28;20074;-54
2023/08/07 15:30:04;;;;;;;6.03;1.40;;;;;;;19.04;48.68;100266.34;15654499;28;20154;-54
2023/08/07 15:37:39;;;;;;;5.13;1.73;;;;;;;19.05;49.62;100281.56;15655116;28;20122;-53
2023/08/07 15:45:12;;;;;;;9.15;1.83;;;;;;;19.22;48.62;100283.97;15654274;28;20516;-52
2023/08/07 15:52:47;;;;;;;9.25;1.67;;;;;;;19.30;48.45;100282.53;15672586;28;20552;-52
2023/08/07 16:00:21;;;;;;;7.38;1.70;;;;;;;18.52;48.88;100297.44;15671772;28;20053;-53
2023/08/07 16:07:55;;;;;;;7.45;1.55;;;;;;;18.24;49.60;100308.88;15671291;28;20131;-51
2023/08/07 16:15:28;;;;;;;4.25;1.80;;;;;;;18.04;48.25;100312.38;15629292;28;20493;-56
2023/08/07 16:23:04;;;;;;;6.30;1.80;;;;;;;18.30;48.39;100303.16;15608093;28;20050;-51
2023/08/07 16:30:37;;;;;;;8.65;1.95;;;;;;;18.39;48.74;100324.34;15609323;28;20475;-48
2023/08/07 16:38:11;;;;;;;7.00;2.10;;;;;;;18.07;48.87;100314.56;15609080;28;20045;-55
2023/08/07 16:45:45;;;;;;;5.47;1.50;;;;;;;18.22;48.37;100330.03;15620476;28;20103;-52
2023/08/07 16:53:20;;;;;;;6.05;1.70;;;;;;;17.90;50.41;100350.09;15619184;28;20041;-53
2023/08/07 17:00:53;;;;;;;4.78;1.50;;;;;;;18.18;50.12;100337.91;15619276;28;20145;-49
2023/08/07 17:08:28;;;;;;;5.53;1.60;;;;;;;18.04;50.88;100345.78;15617363;28;20045;-52
2023/08/07 17:16:03;;;;;;;7.18;1.90;;;;;;;17.81;51.96;100368.84;15662594;28;20068;-55
2023/08/07 17:23:38;;;;;;;5.65;1.98;;;;;;;17.76;52.36;100373.41;15680252;28;20126;-52
2023/08/07 17:31:11;;;;;;;5.70;1.65;;;;;;;17.42;50.85;100367.56;15678464;28;20570;-50
2023/08/07 17:38:45;;;;;;;;;;;;;;;17.35;49.20;100392.22;15662163;28;20053;-51
2023/08/07 17:46:18;;;;;;;8.90;1.77;;;;;;;17.50;49.81;100410.47;15679395;28;19932;-57
2023/08/07 17:53:52;;;;;;;;;;;;;;;17.17;49.54;100408.94;15677578;28;20128;-45
2023/08/07 18:01:29;;;;;;;7.95;2.03;;;;;;;16.91;49.34;100416.88;15676531;28;19928;-49
2023/08/07 18:09:03;;;;;;;6.75;2.00;;;;;;;16.76;50.00;100414.06;15673010;22;20044;-49
2023/08/07 18:16:36;;;;;;;6.60;2.20;;;;;;;17.01;49.92;100416.13;15618863;28;20163;-53
2023/08/07 18:24:11;;;;;;;6.18;1.98;;;;;;;16.81;50.76;100431.19;15602394;28;20387;-51
2023/08/07 18:31:45;;;;;;;6.28;1.70;;;;;;;16.58;52.75;100450.47;15619513;28;20072;-52
2023/08/07 18:39:19;;;;;;;;;;;;;;;16.59;52.46;100460.22;15620014;28;20047;-49
2023/08/07 18:46:52;;;;;;;5.65;1.80;;;;;;;16.59;52.76;100482.72;15619647;28;19967;-50
2023/08/07 18:54:26;;;;;;;5.38;1.75;;;;;;;16.25;53.84;100465.84;15618048;28;20560;-49
2023/08/07 19:01:59;;;;;;;6.45;1.70;;;;;;;16.49;53.67;100479.91;15618108;28;20057;-51
2023/08/07 19:09:33;;;;;;;6.88;1.73;;;;;;;16.42;53.89;100495.56;15599793;28;20100;-49
2023/08/07 19:17:07;;;;;;;4.28;1.63;;;;;;;16.53;53.29;100491.06;15554920;28;20057;-51
2023/08/07 19:24:42;;;;;;;6.00;1.83;;;;;;;16.11;54.20;100512.53;15555008;28;20050;-51
2023/08/07 19:32:16;;;;;;;5.10;1.50;;;;;;;16.13;54.96;100523.91;15555485;28;20050;-48
2023/08/07 19:39:50;;;;;;;5.70;1.90;;;;;;;16.00;56.69;100522.44;15553832;28;20133;-50
2023/08/07 19:47:23;;;;;;;8.40;2.20;;;;;;;15.66;59.98;100513.56;15555903;28;20049;-48
2023/08/07 19:54:58;;;;;;;5.65;1.92;;;;;;;15.51;60.23;100528.47;15553116;28;20517;-49
2023/08/07 20:02:32;;;;;;;4.28;1.90;;;;;;;15.30;59.79;100538.19;15554189;28;20042;-48
2023/08/07 20:10:09;;;;;;;5.60;1.90;;;;;;;15.19;59.39;100543.66;15554775;28;20514;-52
2023/08/07 20:17:45;;;;;;;8.40;1.67;;;;;;;15.30;58.48;100557.09;15604270;28;20694;-49
2023/08/07 20:25:20;;;;;;;5.50;1.83;;;;;;;15.36;57.68;100555.31;15609653;28;20124;-48
2023/08/07 20:32:53;;;;;;;6.47;1.63;;;;;;;15.29;57.93;100568.16;15609335;28;20502;-49
2023/08/07 20:40:30;;;;;;;6.22;1.65;;;;;;;15.30;58.20;100575.22;15625506;28;20072;-48
2023/08/07 20:48:03;;;;;;;5.63;2.15;;;;;;;15.18;58.53;100586.09;15625732;28;20052;-49
2023/08/07 20:55:37;;;;;;;;;;;;;;;15.12;59.55;100580.88;15625612;28;20046;-50
2023/08/07 21:03:10;;;;;;;8.65;2.28;;;;;;;15.03;59.41;100573.16;15622783;28;19921;-48
2023/08/07 21:10:44;;;;;;;6.70;1.85;;;;;;;15.05;59.94;100572.88;15624006;28;20572;-48
2023/08/07 21:18:17;;;;;;;10.07;2.38;;;;;;;14.83;61.42;100564.69;15624200;28;20045;-50
2023/08/07 21:25:53;;;;;;;5.40;1.52;;;;;;;14.64;62.71;100582.97;15623692;28;20044;-48
2023/08/07 21:33:26;;;;;;;7.63;1.80;;;;;;;14.60;62.51;100576.41;15623009;28;20041;-48
2023/08/07 21:41:00;;;;;;;;;;;;;;;14.84;62.35;100579.00;15605534;28;20045;-48
2023/08/07 21:48:33;;;;;;;4.65;1.65;;;;;;;14.95;62.80;100575.41;15622189;28;20016;-51
2023/08/07 21:56:08;;;;;;;;;;;;;;;14.60;63.93;100573.72;15622586;28;20037;-49
2023/08/07 22:03:41;;;;;;;6.05;1.98;;;;;;;14.73;63.59;100577.97;15619509;28;19925;-49
2023/08/07 22:11:16;;;;;;;5.57;2.22;;;;;;;14.46;64.48;100585.81;15618749;28;20481;-49
2023/08/07 22:18:49;;;;;;;7.72;2.10;;;;;;;14.54;64.09;100575.47;15602488;28;20049;-49
2023/08/07 22:26:25;;;;;;;7.90;2.63;;;;;;;14.33;64.94;100581.50;15619984;28;20041;-48
2023/08/07 22:33:58;;;;;;;4.97;2.15;;;;;;;14.14;65.40;100575.44;15619810;28;20088;-50
2023/08/07 22:41:33;;;;;;;7.53;2.50;;;;;;;14.15;65.00;100590.59;15600849;28;20073;-48
2023/08/07 22:49:05;;;;;;;6.45;2.40;;;;;;;14.14;64.29;100578.16;15618991;28;20053;-50
2023/08/07 22:56:40;;;;;;;7.03;1.98;;;;;;;14.00;64.66;100584.84;15618583;28;20490;-51
2023/08/07 23:04:13;;;;;;;7.80;2.38;;;;;;;14.12;63.63;100587.53;15617694;28;20099;-48
2023/08/07 23:11:48;;;;;;;10.65;2.38;;;;;;;14.12;63.21;100582.13;15588203;28;20060;-50
2023/08/07 23:19:20;;;;;;;5.93;1.88;;;;;;;14.34;62.53;100590.44;15555590;28;20042;-48
2023/08/07 23:26:55;;;;;;;;;;;;;;;14.28;62.54;100593.03;15555705;28;20069;-49
2023/08/07 23:34:28;;;;;;;8.30;2.35;;;;;;;14.13;63.27;100583.75;15551898;28;20357;-49
2023/08/07 23:42:02;;;;;;;7.72;2.10;;;;;;;14.12;63.59;100588.34;15553201;28;20171;-48
2023/08/07 23:49:35;;;;;;;5.40;1.98;;;;;;;13.71;64.73;100578.56;15552383;28;20050;-49
2023/08/07 23:57:11;;;;;;;6.10;2.20;;;;;;;14.16;63.40;100567.91;15552345;28;20610;-48
